sensor_id;sensor_type;location;lat;lon;timestamp;pressure;altitude;pressure_sealevel;temperature;humidity
65760;BME280;52496;51.082;5.066;2023-09-19T00:01:17;100822.72;;;15.04;100.00
65760;BME280;52496;51.082;5.066;2023-09-19T00:03:50;100820.22;;;15.02;100.00
65760;BME280;52496;51.082;5.066;2023-09-19T00:06:20;100817.94;;;14.99;100.00
65760;BME280;52496;51.082;5.066;2023-09-19T00:08:51;100824.81;;;14.95;100.00
65760;BME280;52496;51.082;5.066;2023-09-19T00:11:21;100825.25;;;14.92;100.00
65760;BME280;52496;51.082;5.066;2023-09-19T00:13:56;100828.13;;;14.90;100.00
65760;BME280;52496;51.082;5.066;2023-09-19T00:16:29;100826.09;;;14.86;100.00
65760;BME280;52496;51.082;5.066;2023-09-19T00:18:59;100839.16;;;14.82;100.00
65760;BME280;52496;51.082;5.066;2023-09-19T00:21:37;100843.53;;;14.77;100.00
65760;BME280;52496;51.082;5.066;2023-09-19T00:24:08;100843.94;;;14.74;100.00
65760;BME280;52496;51.082;5.066;2023-09-19T00:26:39;100840.63;;;14.72;100.00
65760;BME280;52496;51.082;5.066;2023-09-19T00:29:10;100844.38;;;14.71;100.00
65760;BME280;52496;51.082;5.066;2023-09-19T00:31:43;100852.63;;;14.69;100.00
65760;BME280;52496;51.082;5.066;2023-09-19T00:34:13;100855.56;;;14.67;100.00
65760;BME280;52496;51.082;5.066;2023-09-19T00:36:44;100850.19;;;14.67;100.00
65760;BME280;52496;51.082;5.066;2023-09-19T00:39:15;100853.47;;;14.69;100.00
65760;BME280;52496;51.082;5.066;2023-09-19T00:41:46;100862.16;;;14.72;100.00
65760;BME280;52496;51.082;5.066;2023-09-19T00:44:16;100851.41;;;14.72;100.00
65760;BME280;52496;51.082;5.066;2023-09-19T00:46:47;100861.53;;;14.69;100.00
65760;BME280;52496;51.082;5.066;2023-09-19T00:49:19;100866.72;;;14.71;100.00
65760;BME280;52496;51.082;5.066;2023-09-19T00:51:52;100867.56;;;14.72;100.00
65760;BME280;52496;51.082;5.066;2023-09-19T00:54:23;100868.78;;;14.76;100.00
65760;BME280;52496;51.082;5.066;2023-09-19T00:56:55;100867.13;;;14.75;100.00
65760;BME280;52496;51.082;5.066;2023-09-19T00:59:27;100877.91;;;14.75;100.00
65760;BME280;52496;51.082;5.066;2023-09-19T01:01:58;100885.16;;;14.74;100.00
65760;BME280;52496;51.082;5.066;2023-09-19T01:04:30;100881.22;;;14.77;100.00
65760;BME280;52496;51.082;5.066;2023-09-19T01:07:01;100891.34;;;14.75;100.00
65760;BME280;52496;51.082;5.066;2023-09-19T01:09:31;100891.34;;;14.75;100.00
65760;BME280;52496;51.082;5.066;2023-09-19T01:12:05;100900.06;;;14.77;100.00
65760;BME280;52496;51.082;5.066;2023-09-19T01:14:59;100899.00;;;14.78;100.00
65760;BME280;52496;51.082;5.066;2023-09-19T01:17:46;100904.41;;;14.78;100.00
65760;BME280;52496;51.082;5.066;2023-09-19T01:20:37;100895.50;;;14.77;100.00
65760;BME280;52496;51.082;5.066;2023-09-19T01:28:52;100899.44;;;14.75;100.00
65760;BME280;52496;51.082;5.066;2023-09-19T01:31:31;100899.84;;;14.72;100.00
65760;BME280;52496;51.082;5.066;2023-09-19T01:34:06;100894.88;;;14.68;100.00
65760;BME280;52496;51.082;5.066;2023-09-19T01:36:38;100898.63;;;14.67;100.00
65760;BME280;52496;51.082;5.066;2023-09-19T01:39:11;100897.59;;;14.62;100.00
65760;BME280;52496;51.082;5.066;2023-09-19T01:42:01;100905.28;;;14.58;100.00
65760;BME280;52496;51.082;5.066;2023-09-19T01:44:44;100908.97;;;14.57;100.00
65760;BME280;52496;51.082;5.066;2023-09-19T01:47:25;100906.09;;;14.52;100.00
65760;BME280;52496;51.082;5.066;2023-09-19T01:50:00;100903.56;;;14.51;100.00
65760;BME280;52496;51.082;5.066;2023-09-19T01:52:37;100900.28;;;14.49;100.00
65760;BME280;52496;51.082;5.066;2023-09-19T01:55:10;100901.53;;;14.46;100.00
65760;BME280;52496;51.082;5.066;2023-09-19T01:57:51;100901.94;;;14.43;100.00
65760;BME280;52496;51.082;5.066;2023-09-19T02:00:25;100895.94;;;14.41;100.00
65760;BME280;52496;51.082;5.066;2023-09-19T02:02:58;100901.53;;;14.39;100.00
65760;BME280;52496;51.082;5.066;2023-09-19T02:05:29;100904.41;;;14.38;100.00
65760;BME280;52496;51.082;5.066;2023-09-19T02:08:00;100900.91;;;14.37;100.00
65760;BME280;52496;51.082;5.066;2023-09-19T02:10:31;100903.59;;;14.37;100.00
65760;BME280;52496;51.082;5.066;2023-09-19T02:13:01;100904.84;;;14.35;100.00
65760;BME280;52496;51.082;5.066;2023-09-19T02:15:35;100906.91;;;14.33;100.00
65760;BME280;52496;51.082;5.066;2023-09-19T02:18:07;100900.50;;;14.34;100.00
65760;BME280;52496;51.082;5.066;2023-09-19T02:20:38;100898.81;;;14.33;100.00
65760;BME280;52496;51.082;5.066;2023-09-19T02:23:09;100902.34;;;14.33;100.00
65760;BME280;52496;51.082;5.066;2023-09-19T02:25:40;100902.75;;;14.30;100.00
65760;BME280;52496;51.082;5.066;2023-09-19T02:28:11;100902.97;;;14.29;100.00
65760;BME280;52496;51.082;5.066;2023-09-19T02:30:42;100902.34;;;14.27;100.00
65760;BME280;52496;51.082;5.066;2023-09-19T02:33:12;100895.31;;;14.26;100.00
65760;BME280;52496;51.082;5.066;2023-09-19T02:35:43;100901.75;;;14.25;100.00
65760;BME280;52496;51.082;5.066;2023-09-19T02:38:14;100901.13;;;14.22;100.00
65760;BME280;52496;51.082;5.066;2023-09-19T02:40:48;100902.97;;;14.22;100.00
65760;BME280;52496;51.082;5.066;2023-09-19T02:43:18;100890.78;;;14.19;100.00
65760;BME280;52496;51.082;5.066;2023-09-19T02:45:52;100898.22;;;14.17;100.00
65760;BME280;52496;51.082;5.066;2023-09-19T02:48:27;100907.31;;;14.16;100.00
65760;BME280;52496;51.082;5.066;2023-09-19T02:50:57;100907.31;;;14.16;100.00
65760;BME280;52496;51.082;5.066;2023-09-19T02:53:28;100907.72;;;14.13;100.00
65760;BME280;52496;51.082;5.066;2023-09-19T02:55:58;100901.94;;;14.10;100.00
65760;BME280;52496;51.082;5.066;2023-09-19T02:58:29;100906.50;;;14.09;100.00
65760;BME280;52496;51.082;5.066;2023-09-19T03:01:10;100903.19;;;14.07;100.00
65760;BME280;52496;51.082;5.066;2023-09-19T03:03:44;100902.53;;;14.05;100.00
65760;BME280;52496;51.082;5.066;2023-09-19T03:06:15;100918.50;;;14.07;100.00
65760;BME280;52496;51.082;5.066;2023-09-19T03:08:47;100912.28;;;14.06;100.00
65760;BME280;52496;51.082;5.066;2023-09-19T03:11:19;100917.25;;;14.09;100.00
65760;BME280;52496;51.082;5.066;2023-09-19T03:13:53;100923.03;;;14.13;100.00
65760;BME280;52496;51.082;5.066;2023-09-19T03:16:23;100919.72;;;14.17;100.00
65760;BME280;52496;51.082;5.066;2023-09-19T03:18:55;100915.59;;;14.21;100.00
65760;BME280;52496;51.082;5.066;2023-09-19T03:21:25;100915.19;;;14.25;100.00
65760;BME280;52496;51.082;5.066;2023-09-19T03:23:56;100919.13;;;14.29;100.00
65760;BME280;52496;51.082;5.066;2023-09-19T03:26:27;100917.06;;;14.31;100.00
65760;BME280;52496;51.082;5.066;2023-09-19T03:28:57;100917.66;;;14.33;100.00
65760;BME280;52496;51.082;5.066;2023-09-19T03:31:28;100915.59;;;14.35;100.00
65760;BME280;52496;51.082;5.066;2023-09-19T03:33:58;100910.22;;;14.35;100.00
65760;BME280;52496;51.082;5.066;2023-09-19T03:36:29;100916.81;;;14.39;100.00
65760;BME280;52496;51.082;5.066;2023-09-19T03:39:00;100912.31;;;14.39;100.00
65760;BME280;52496;51.082;5.066;2023-09-19T03:41:31;100911.03;;;14.42;100.00
65760;BME280;52496;51.082;5.066;2023-09-19T03:44:03;100917.47;;;14.41;100.00
65760;BME280;52496;51.082;5.066;2023-09-19T03:46:34;100915.00;;;14.39;100.00
65760;BME280;52496;51.082;5.066;2023-09-19T03:49:06;100913.31;;;14.38;100.00
65760;BME280;52496;51.082;5.066;2023-09-19T03:51:36;100922.63;;;14.36;100.00
65760;BME280;52496;51.082;5.066;2023-09-19T03:54:08;100915.59;;;14.35;100.00
65760;BME280;52496;51.082;5.066;2023-09-19T03:56:38;100915.19;;;14.38;100.00
65760;BME280;52496;51.082;5.066;2023-09-19T03:59:09;100905.47;;;14.37;100.00
65760;BME280;52496;51.082;5.066;2023-09-19T04:01:40;100900.69;;;14.39;100.00
65760;BME280;52496;51.082;5.066;2023-09-19T04:04:11;100904.00;;;14.41;100.00
65760;BME280;52496;51.082;5.066;2023-09-19T04:06:44;100908.16;;;14.43;100.00
65760;BME280;52496;51.082;5.066;2023-09-19T04:09:15;100908.56;;;14.47;100.00
65760;BME280;52496;51.082;5.066;2023-09-19T04:11:45;100908.97;;;14.51;100.00
65760;BME280;52496;51.082;5.066;2023-09-19T04:14:16;100909.41;;;14.54;100.00
65760;BME280;52496;51.082;5.066;2023-09-19T04:16:46;100916.03;;;14.58;100.00
65760;BME280;52496;51.082;5.066;2023-09-19T04:19:17;100927.19;;;14.62;100.00
65760;BME280;52496;51.082;5.066;2023-09-19T04:21:47;100916.00;;;14.65;100.00
65760;BME280;52496;51.082;5.066;2023-09-19T04:24:18;100931.53;;;14.69;100.00
65760;BME280;52496;51.082;5.066;2023-09-19T04:26:49;100933.78;;;14.73;100.00
65760;BME280;52496;51.082;5.066;2023-09-19T04:29:19;100932.34;;;14.77;100.00
65760;BME280;52496;51.082;5.066;2023-09-19T04:31:50;100932.97;;;14.79;100.00
65760;BME280;52496;51.082;5.066;2023-09-19T04:34:20;100933.38;;;14.82;100.00
65760;BME280;52496;51.082;5.066;2023-09-19T04:36:51;100934.00;;;14.84;100.00
65760;BME280;52496;51.082;5.066;2023-09-19T04:39:23;100937.31;;;14.86;100.00
65760;BME280;52496;51.082;5.066;2023-09-19T04:41:55;100939.78;;;14.88;100.00
65760;BME280;52496;51.082;5.066;2023-09-19T04:44:27;100938.75;;;14.89;100.00
65760;BME280;52496;51.082;5.066;2023-09-19T04:46:58;100944.34;;;14.87;100.00
65760;BME280;52496;51.082;5.066;2023-09-19T04:49:29;100949.13;;;14.85;100.00
65760;BME280;52496;51.082;5.066;2023-09-19T04:52:00;100959.03;;;14.85;100.00
65760;BME280;52496;51.082;5.066;2023-09-19T04:54:31;100964.84;;;14.82;100.00
65760;BME280;52496;51.082;5.066;2023-09-19T04:57:01;100969.63;;;14.80;100.00
65760;BME280;52496;51.082;5.066;2023-09-19T04:59:33;100966.53;;;14.76;100.00
65760;BME280;52496;51.082;5.066;2023-09-19T05:02:04;100971.47;;;14.73;100.00
65760;BME280;52496;51.082;5.066;2023-09-19T05:04:35;100973.16;;;14.67;100.00
65760;BME280;52496;51.082;5.066;2023-09-19T05:07:05;100980.19;;;14.61;100.00
65760;BME280;52496;51.082;5.066;2023-09-19T05:09:36;100990.97;;;14.55;100.00
65760;BME280;52496;51.082;5.066;2023-09-19T05:12:07;100985.53;;;14.48;100.00
65760;BME280;52496;51.082;5.066;2023-09-19T05:14:38;100985.34;;;14.43;100.00
65760;BME280;52496;51.082;5.066;2023-09-19T05:17:08;100993.84;;;14.40;100.00
65760;BME280;52496;51.082;5.066;2023-09-19T05:19:38;100997.13;;;14.35;100.00
65760;BME280;52496;51.082;5.066;2023-09-19T05:22:09;100991.34;;;14.32;100.00
65760;BME280;52496;51.082;5.066;2023-09-19T05:24:39;100987.41;;;14.28;100.00
65760;BME280;52496;51.082;5.066;2023-09-19T05:27:10;100987.59;;;14.19;100.00
65760;BME280;52496;51.082;5.066;2023-09-19T05:29:40;100995.03;;;14.17;100.00
65760;BME280;52496;51.082;5.066;2023-09-19T05:32:12;100999.16;;;14.13;100.00
65760;BME280;52496;51.082;5.066;2023-09-19T14:04:46;100930.69;;;20.79;89.38
65760;BME280;52496;51.082;5.066;2023-09-19T14:07:17;100929.00;;;20.78;89.37
65760;BME280;52496;51.082;5.066;2023-09-19T14:09:50;100932.72;;;20.72;89.38
65760;BME280;52496;51.082;5.066;2023-09-19T14:12:20;100937.34;;;20.71;90.19
65760;BME280;52496;51.082;5.066;2023-09-19T14:14:51;100935.44;;;20.72;90.73
65760;BME280;52496;51.082;5.066;2023-09-19T14:17:21;100939.84;;;20.73;89.96
65760;BME280;52496;51.082;5.066;2023-09-19T14:19:52;100930.59;;;20.74;89.78
65760;BME280;52496;51.082;5.066;2023-09-19T14:22:22;100926.47;;;20.71;89.88
65760;BME280;52496;51.082;5.066;2023-09-19T14:24:53;100928.97;;;20.73;89.98
65760;BME280;52496;51.082;5.066;2023-09-19T14:27:24;100924.66;;;20.77;89.62
65760;BME280;52496;51.082;5.066;2023-09-19T14:29:55;100934.22;;;20.79;90.19
65760;BME280;52496;51.082;5.066;2023-09-19T14:32:27;100922.84;;;20.82;89.75
65760;BME280;52496;51.082;5.066;2023-09-19T14:34:58;100931.31;;;20.86;89.53
65760;BME280;52496;51.082;5.066;2023-09-19T14:37:28;100932.72;;;20.89;89.51
65760;BME280;52496;51.082;5.066;2023-09-19T14:39:59;100919.84;;;20.84;89.08
65760;BME280;52496;51.082;5.066;2023-09-19T14:42:29;100919.22;;;20.77;89.58
65760;BME280;52496;51.082;5.066;2023-09-19T14:45:00;100917.09;;;20.79;90.61
65760;BME280;52496;51.082;5.066;2023-09-19T14:47:31;100920.44;;;20.86;90.92
65760;BME280;52496;51.082;5.066;2023-09-19T14:50:04;100911.84;;;20.94;90.56
65760;BME280;52496;51.082;5.066;2023-09-19T14:52:37;100902.44;;;21.02;89.72
65760;BME280;52496;51.082;5.066;2023-09-19T14:55:10;100900.16;;;21.16;90.32
65760;BME280;52496;51.082;5.066;2023-09-19T14:57:49;100912.19;;;21.20;88.60
65760;BME280;52496;51.082;5.066;2023-09-19T15:00:21;100908.31;;;21.16;88.34
65760;BME280;52496;51.082;5.066;2023-09-19T15:02:53;100901.50;;;21.13;89.42
65760;BME280;52496;51.082;5.066;2023-09-19T15:05:27;100909.25;;;21.26;88.67
65760;BME280;52496;51.082;5.066;2023-09-19T15:07:59;100904.31;;;21.45;88.14
65760;BME280;52496;51.082;5.066;2023-09-19T15:10:30;100902.72;;;21.71;87.45
65760;BME280;52496;51.082;5.066;2023-09-19T15:13:00;100903.66;;;21.87;87.33
65760;BME280;52496;51.082;5.066;2023-09-19T15:15:31;100901.16;;;21.81;86.29
65760;BME280;52496;51.082;5.066;2023-09-19T15:18:02;100911.97;;;21.70;86.85
65760;BME280;52496;51.082;5.066;2023-09-19T15:20:33;100900.66;;;21.57;85.83
65760;BME280;52496;51.082;5.066;2023-09-19T15:23:03;100910.03;;;21.44;87.78
65760;BME280;52496;51.082;5.066;2023-09-19T15:25:34;100901.66;;;21.28;88.54
65760;BME280;52496;51.082;5.066;2023-09-19T15:28:05;100904.53;;;21.17;90.32
65760;BME280;52496;51.082;5.066;2023-09-19T15:30:38;100906.81;;;21.03;89.68
65760;BME280;52496;51.082;5.066;2023-09-19T15:33:09;100913.91;;;20.87;89.38
65760;BME280;52496;51.082;5.066;2023-09-19T15:35:39;100904.25;;;20.74;90.05
65760;BME280;52496;51.082;5.066;2023-09-19T15:38:09;100912.56;;;20.68;90.63
65760;BME280;52496;51.082;5.066;2023-09-19T15:40:46;100913.88;;;20.65;92.48
65760;BME280;52496;51.082;5.066;2023-09-19T15:43:17;100907.56;;;20.59;92.46
65760;BME280;52496;51.082;5.066;2023-09-19T15:45:49;100909.03;;;20.50;91.83
65760;BME280;52496;51.082;5.066;2023-09-19T15:48:19;100906.16;;;20.40;92.01
65760;BME280;52496;51.082;5.066;2023-09-19T15:50:52;100902.81;;;20.33;92.36
65760;BME280;52496;51.082;5.066;2023-09-19T15:53:23;100903.75;;;20.27;92.46
65760;BME280;52496;51.082;5.066;2023-09-19T15:55:54;100903.94;;;20.20;93.75
65760;BME280;52496;51.082;5.066;2023-09-19T15:58:24;100898.66;;;20.13;93.31
65760;BME280;52496;51.082;5.066;2023-09-19T16:00:55;100905.09;;;20.07;93.64
65760;BME280;52496;51.082;5.066;2023-09-19T16:03:26;100908.88;;;20.06;94.20
65760;BME280;52496;51.082;5.066;2023-09-19T16:05:57;100896.34;;;20.05;94.61
65760;BME280;52496;51.082;5.066;2023-09-19T16:08:27;100902.03;;;20.04;95.39
65760;BME280;52496;51.082;5.066;2023-09-19T16:10:58;100895.78;;;20.03;94.49
65760;BME280;52496;51.082;5.066;2023-09-19T16:13:28;100901.72;;;20.00;94.26
65760;BME280;52496;51.082;5.066;2023-09-19T16:15:59;100905.16;;;19.96;94.40
65760;BME280;52496;51.082;5.066;2023-09-19T16:18:30;100902.38;;;19.90;94.98
65760;BME280;52496;51.082;5.066;2023-09-19T16:21:04;100898.97;;;19.83;95.13
65760;BME280;52496;51.082;5.066;2023-09-19T16:23:34;100897.00;;;19.79;96.35
65760;BME280;52496;51.082;5.066;2023-09-19T16:26:08;100901.03;;;19.76;96.61
65760;BME280;52496;51.082;5.066;2023-09-19T16:28:39;100903.63;;;19.71;96.15
65760;BME280;52496;51.082;5.066;2023-09-19T16:31:10;100906.00;;;19.67;97.26
65760;BME280;52496;51.082;5.066;2023-09-19T16:33:42;100910.03;;;19.65;96.20
65760;BME280;52496;51.082;5.066;2023-09-19T16:36:16;100910.25;;;19.63;97.05
65760;BME280;52496;51.082;5.066;2023-09-19T16:38:47;100920.28;;;19.63;96.94
65760;BME280;52496;51.082;5.066;2023-09-19T16:41:19;100917.81;;;19.61;97.35
65760;BME280;52496;51.082;5.066;2023-09-19T16:43:49;100916.66;;;19.57;97.83
65760;BME280;52496;51.082;5.066;2023-09-19T16:46:19;100916.88;;;19.56;98.05
65760;BME280;52496;51.082;5.066;2023-09-19T16:48:50;100910.06;;;19.53;96.89
65760;BME280;52496;51.082;5.066;2023-09-19T16:51:21;100915.72;;;19.52;97.39
65760;BME280;52496;51.082;5.066;2023-09-19T16:53:51;100905.09;;;19.50;97.91
65760;BME280;52496;51.082;5.066;2023-09-19T16:56:24;100911.59;;;19.49;98.34
65760;BME280;52496;51.082;5.066;2023-09-19T16:58:55;100901.84;;;19.48;98.02
65760;BME280;52496;51.082;5.066;2023-09-19T17:01:27;100903.94;;;19.46;98.53
65760;BME280;52496;51.082;5.066;2023-09-19T17:03:58;100915.28;;;19.43;98.42
65760;BME280;52496;51.082;5.066;2023-09-19T17:06:29;100919.06;;;19.42;98.76
65760;BME280;52496;51.082;5.066;2023-09-19T17:08:59;100916.59;;;19.40;99.22
65760;BME280;52496;51.082;5.066;2023-09-19T17:11:30;100916.84;;;19.39;99.44
65760;BME280;52496;51.082;5.066;2023-09-19T17:14:00;100914.63;;;19.36;99.49
65760;BME280;52496;51.082;5.066;2023-09-19T17:16:32;100914.03;;;19.34;99.36
65760;BME280;52496;51.082;5.066;2023-09-19T17:19:03;100912.38;;;19.33;99.89
65760;BME280;52496;51.082;5.066;2023-09-19T17:21:39;100917.22;;;19.31;99.51
65760;BME280;52496;51.082;5.066;2023-09-19T17:24:10;100915.56;;;19.30;99.01
65760;BME280;52496;51.082;5.066;2023-09-19T17:26:42;100912.28;;;19.28;99.39
65760;BME280;52496;51.082;5.066;2023-09-19T17:29:13;100916.63;;;19.29;99.88
65760;BME280;52496;51.082;5.066;2023-09-19T17:31:43;100908.97;;;19.25;99.70
65760;BME280;52496;51.082;5.066;2023-09-19T17:34:14;100912.75;;;19.24;100.00
65760;BME280;52496;51.082;5.066;2023-09-19T17:36:45;100910.53;;;19.21;100.00
65760;BME280;52496;51.082;5.066;2023-09-19T17:39:16;100914.53;;;19.19;100.00
65760;BME280;52496;51.082;5.066;2023-09-19T17:41:47;100913.38;;;19.15;100.00
65760;BME280;52496;51.082;5.066;2023-09-19T17:44:18;100925.50;;;19.12;100.00
65760;BME280;52496;51.082;5.066;2023-09-19T17:46:48;100914.34;;;19.09;100.00
65760;BME280;52496;51.082;5.066;2023-09-19T17:49:19;100921.66;;;19.08;100.00
65760;BME280;52496;51.082;5.066;2023-09-19T17:51:51;100920.22;;;19.06;100.00
65760;BME280;52496;51.082;5.066;2023-09-19T17:54:21;100916.34;;;19.01;100.00
65760;BME280;52496;51.082;5.066;2023-09-19T17:56:53;100922.81;;;19.00;100.00
65760;BME280;52496;51.082;5.066;2023-09-19T17:59:24;100930.13;;;19.00;100.00
65760;BME280;52496;51.082;5.066;2023-09-19T18:01:55;100918.69;;;18.98;100.00
65760;BME280;52496;51.082;5.066;2023-09-19T18:04:25;100917.88;;;18.97;100.00
65760;BME280;52496;51.082;5.066;2023-09-19T18:06:56;100915.38;;;18.96;100.00
65760;BME280;52496;51.082;5.066;2023-09-19T18:09:27;100915.88;;;18.93;100.00
65760;BME280;52496;51.082;5.066;2023-09-19T18:11:58;100925.88;;;18.92;100.00
65760;BME280;52496;51.082;5.066;2023-09-19T18:14:28;100907.19;;;18.91;100.00
65760;BME280;52496;51.082;5.066;2023-09-19T18:17:02;100929.88;;;18.90;100.00
65760;BME280;52496;51.082;5.066;2023-09-19T18:19:33;100919.31;;;18.88;100.00
65760;BME280;52496;51.082;5.066;2023-09-19T18:22:03;100911.19;;;18.88;100.00
65760;BME280;52496;51.082;5.066;2023-09-19T18:24:35;100920.59;;;18.86;100.00
65760;BME280;52496;51.082;5.066;2023-09-19T18:27:06;100916.94;;;18.80;100.00
65760;BME280;52496;51.082;5.066;2023-09-19T18:29:37;100917.78;;;18.80;100.00
65760;BME280;52496;51.082;5.066;2023-09-19T18:32:12;100913.41;;;18.79;100.00
65760;BME280;52496;51.082;5.066;2023-09-19T18:34:43;100900.34;;;18.76;100.00
65760;BME280;52496;51.082;5.066;2023-09-19T18:37:13;100898.13;;;18.73;100.00
65760;BME280;52496;51.082;5.066;2023-09-19T18:39:44;100890.00;;;18.73;100.00
65760;BME280;52496;51.082;5.066;2023-09-19T18:42:14;100908.31;;;18.71;100.00
65760;BME280;52496;51.082;5.066;2023-09-19T18:44:45;100912.09;;;18.70;100.00
65760;BME280;52496;51.082;5.066;2023-09-19T18:47:16;100912.34;;;18.69;100.00
65760;BME280;52496;51.082;5.066;2023-09-19T18:49:46;100914.22;;;18.68;100.00
65760;BME280;52496;51.082;5.066;2023-09-19T18:52:17;100919.63;;;18.68;100.00
65760;BME280;52496;51.082;5.066;2023-09-19T18:54:50;100914.69;;;18.65;100.00
65760;BME280;52496;51.082;5.066;2023-09-19T18:57:21;100915.75;;;18.64;100.00
65760;BME280;52496;51.082;5.066;2023-09-19T18:59:51;100922.25;;;18.63;100.00
65760;BME280;52496;51.082;5.066;2023-09-19T19:02:23;100920.81;;;18.61;100.00
65760;BME280;52496;51.082;5.066;2023-09-19T19:04:53;100919.19;;;18.60;100.00
65760;BME280;52496;51.082;5.066;2023-09-19T19:07:25;100920.22;;;18.58;100.00
65760;BME280;52496;51.082;5.066;2023-09-19T19:09:55;100919.41;;;18.58;100.00
65760;BME280;52496;51.082;5.066;2023-09-19T19:12:26;100910.47;;;18.57;100.00
65760;BME280;52496;51.082;5.066;2023-09-19T19:14:57;100907.75;;;18.57;100.00
65760;BME280;52496;51.082;5.066;2023-09-19T19:17:31;100906.94;;;18.57;100.00
65760;BME280;52496;51.082;5.066;2023-09-19T19:20:03;100900.69;;;18.56;100.00
65760;BME280;52496;51.082;5.066;2023-09-19T19:22:36;100898.22;;;18.55;100.00
65760;BME280;52496;51.082;5.066;2023-09-19T19:25:07;100909.88;;;18.55;100.00
65760;BME280;52496;51.082;5.066;2023-09-19T19:27:39;100899.28;;;18.54;100.00
65760;BME280;52496;51.082;5.066;2023-09-19T19:30:10;100897.03;;;18.51;100.00
65760;BME280;52496;51.082;5.066;2023-09-19T19:32:41;100899.16;;;18.49;100.00
65760;BME280;52496;51.082;5.066;2023-09-19T19:35:12;100909.16;;;18.48;100.00
65760;BME280;52496;51.082;5.066;2023-09-19T19:37:43;100912.09;;;18.47;100.00
65760;BME280;52496;51.082;5.066;2023-09-19T19:40:14;100903.41;;;18.45;100.00
65760;BME280;52496;51.082;5.066;2023-09-19T19:42:44;100914.22;;;18.45;100.00
65760;BME280;52496;51.082;5.066;2023-09-19T19:45:16;100908.00;;;18.44;100.00
65760;BME280;52496;51.082;5.066;2023-09-19T19:47:46;100915.28;;;18.44;100.00
65760;BME280;52496;51.082;5.066;2023-09-19T19:50:17;100916.34;;;18.43;100.00
65760;BME280;52496;51.082;5.066;2023-09-19T19:52:51;100911.19;;;18.41;100.00
65760;BME280;52496;51.082;5.066;2023-09-19T19:55:23;100913.88;;;18.41;100.00
65760;BME280;52496;51.082;5.066;2023-09-19T19:57:57;100905.50;;;18.43;100.00
65760;BME280;52496;51.082;5.066;2023-09-19T20:00:28;100909.28;;;18.42;100.00
65760;BME280;52496;51.082;5.066;2023-09-19T20:03:02;100908.47;;;18.41;100.00
65760;BME280;52496;51.082;5.066;2023-09-19T20:05:39;100908.69;;;18.40;100.00
65760;BME280;52496;51.082;5.066;2023-09-19T20:08:13;100909.28;;;18.42;100.00
65760;BME280;52496;51.082;5.066;2023-09-19T20:10:45;100916.59;;;18.41;100.00
65760;BME280;52496;51.082;5.066;2023-09-19T20:13:15;100919.53;;;18.40;100.00
65760;BME280;52496;51.082;5.066;2023-09-19T20:15:54;100920.94;;;18.42;100.00
65760;BME280;52496;51.082;5.066;2023-09-19T20:18:26;100915.53;;;18.42;100.00
65760;BME280;52496;51.082;5.066;2023-09-19T20:20:56;100920.69;;;18.44;100.00
65760;BME280;52496;51.082;5.066;2023-09-19T20:23:27;100921.16;;;18.41;100.00
65760;BME280;52496;51.082;5.066;2023-09-19T20:26:00;100924.47;;;18.43;100.00
65760;BME280;52496;51.082;5.066;2023-09-19T20:28:31;100923.41;;;18.44;100.00
65760;BME280;52496;51.082;5.066;2023-09-19T20:31:06;100921.75;;;18.43;100.00
65760;BME280;52496;51.082;5.066;2023-09-19T20:33:37;100921.53;;;18.44;100.00
65760;BME280;52496;51.082;5.066;2023-09-19T20:36:09;100917.97;;;18.44;100.00
65760;BME280;52496;51.082;5.066;2023-09-19T20:38:41;100925.06;;;18.45;100.00
65760;BME280;52496;51.082;5.066;2023-09-19T20:41:11;100911.53;;;18.45;100.00
65760;BME280;52496;51.082;5.066;2023-09-19T20:43:42;100915.88;;;18.46;100.00
65760;BME280;52496;51.082;5.066;2023-09-19T20:46:13;100922.94;;;18.47;100.00
65760;BME280;52496;51.082;5.066;2023-09-19T20:48:46;100908.34;;;18.48;100.00
65760;BME280;52496;51.082;5.066;2023-09-19T20:51:18;100910.00;;;18.49;100.00
65760;BME280;52496;51.082;5.066;2023-09-19T20:53:55;100906.47;;;18.48;100.00
65760;BME280;52496;51.082;5.066;2023-09-19T20:56:29;100899.16;;;18.49;100.00
65760;BME280;52496;51.082;5.066;2023-09-19T20:59:01;100901.66;;;18.50;100.00
65760;BME280;52496;51.082;5.066;2023-09-19T21:01:35;100891.84;;;18.49;100.00
65760;BME280;52496;51.082;5.066;2023-09-19T21:04:06;100895.38;;;18.50;100.00
65760;BME280;52496;51.082;5.066;2023-09-19T21:06:36;100897.03;;;18.51;100.00
65760;BME280;52496;51.082;5.066;2023-09-19T21:09:07;100897.03;;;18.51;100.00
65760;BME280;52496;51.082;5.066;2023-09-19T21:11:38;100891.63;;;18.51;100.00
65760;BME280;52496;51.082;5.066;2023-09-19T21:14:09;100887.25;;;18.50;100.00
65760;BME280;52496;51.082;5.066;2023-09-19T21:16:39;100883.97;;;18.48;100.00
65760;BME280;52496;51.082;5.066;2023-09-19T21:19:10;100882.09;;;18.48;100.00
65760;BME280;52496;51.082;5.066;2023-09-19T21:21:41;100884.78;;;18.48;100.00
65760;BME280;52496;51.082;5.066;2023-09-19T21:24:11;100878.56;;;18.48;100.00
65760;BME280;52496;51.082;5.066;2023-09-19T21:26:47;100873.16;;;18.48;100.00
65760;BME280;52496;51.082;5.066;2023-09-19T21:29:17;100879.59;;;18.47;100.00
65760;BME280;52496;51.082;5.066;2023-09-19T21:31:48;100876.06;;;18.46;100.00
65760;BME280;52496;51.082;5.066;2023-09-19T21:34:20;100875.25;;;18.46;100.00
65760;BME280;52496;51.082;5.066;2023-09-19T21:36:50;100873.16;;;18.48;100.00
65760;BME280;52496;51.082;5.066;2023-09-19T21:39:22;100875.84;;;18.48;100.00
65760;BME280;52496;51.082;5.066;2023-09-19T21:41:52;100865.03;;;18.48;100.00